sensor_id;sensor_type;location;lat;lon;timestamp;P1;durP1;ratioP1;P2;durP2;ratioP2
74495;SDS011;62979;55.720;37.606;2024-03-22T00:00:35;11.13;;;6.00;;
74495;SDS011;62979;55.720;37.606;2024-03-22T00:03:03;12.43;;;6.03;;
74495;SDS011;62979;55.720;37.606;2024-03-22T00:05:29;12.65;;;6.15;;
74495;SDS011;62979;55.720;37.606;2024-03-22T00:07:56;9.98;;;6.22;;
74495;SDS011;62979;55.720;37.606;2024-03-22T00:10:22;9.10;;;5.55;;
74495;SDS011;62979;55.720;37.606;2024-03-22T00:12:50;10.85;;;6.82;;
74495;SDS011;62979;55.720;37.606;2024-03-22T00:15:17;11.98;;;5.80;;
74495;SDS011;62979;55.720;37.606;2024-03-22T00:17:44;12.75;;;5.65;;
74495;SDS011;62979;55.720;37.606;2024-03-22T00:20:10;8.45;;;5.85;;
74495;SDS011;62979;55.720;37.606;2024-03-22T00:22:37;12.02;;;5.95;;
74495;SDS011;62979;55.720;37.606;2024-03-22T00:25:03;13.10;;;6.57;;
74495;SDS011;62979;55.720;37.606;2024-03-22T00:29:58;7.65;;;5.20;;
74495;SDS011;62979;55.720;37.606;2024-03-22T00:32:26;11.45;;;5.70;;
74495;SDS011;62979;55.720;37.606;2024-03-22T00:34:52;9.60;;;6.00;;
74495;SDS011;62979;55.720;37.606;2024-03-22T00:37:19;13.30;;;6.90;;
74495;SDS011;62979;55.720;37.606;2024-03-22T00:39:45;10.70;;;6.03;;
74495;SDS011;62979;55.720;37.606;2024-03-22T00:42:12;11.40;;;5.60;;
74495;SDS011;62979;55.720;37.606;2024-03-22T00:44:37;10.23;;;5.63;;
74495;SDS011;62979;55.720;37.606;2024-03-22T00:47:06;9.02;;;5.95;;
74495;SDS011;62979;55.720;37.606;2024-03-22T00:49:32;11.57;;;6.20;;
74495;SDS011;62979;55.720;37.606;2024-03-22T00:51:59;13.88;;;5.88;;
74495;SDS011;62979;55.720;37.606;2024-03-22T00:54:25;9.38;;;5.72;;
74495;SDS011;62979;55.720;37.606;2024-03-22T00:56:52;10.90;;;6.32;;
74495;SDS011;62979;55.720;37.606;2024-03-22T00:59:18;13.23;;;6.38;;
74495;SDS011;62979;55.720;37.606;2024-03-22T01:01:45;10.38;;;6.15;;
74495;SDS011;62979;55.720;37.606;2024-03-22T01:04:12;9.48;;;6.30;;
74495;SDS011;62979;55.720;37.606;2024-03-22T01:09:05;15.60;;;6.72;;
74495;SDS011;62979;55.720;37.606;2024-03-22T01:11:32;10.55;;;6.18;;
74495;SDS011;62979;55.720;37.606;2024-03-22T01:13:58;8.48;;;5.75;;
74495;SDS011;62979;55.720;37.606;2024-03-22T01:16:25;9.98;;;6.88;;
74495;SDS011;62979;55.720;37.606;2024-03-22T01:18:51;9.30;;;6.53;;
74495;SDS011;62979;55.720;37.606;2024-03-22T01:21:19;11.95;;;6.47;;
74495;SDS011;62979;55.720;37.606;2024-03-22T01:23:50;13.45;;;6.68;;
74495;SDS011;62979;55.720;37.606;2024-03-22T01:26:18;12.23;;;6.53;;
74495;SDS011;62979;55.720;37.606;2024-03-22T01:28:44;9.52;;;6.25;;
74495;SDS011;62979;55.720;37.606;2024-03-22T01:31:12;13.60;;;6.45;;
74495;SDS011;62979;55.720;37.606;2024-03-22T01:33:38;9.13;;;6.07;;
74495;SDS011;62979;55.720;37.606;2024-03-22T01:36:05;12.52;;;6.18;;
74495;SDS011;62979;55.720;37.606;2024-03-22T01:38:33;17.65;;;6.68;;
74495;SDS011;62979;55.720;37.606;2024-03-22T01:40:59;15.32;;;6.45;;
74495;SDS011;62979;55.720;37.606;2024-03-22T01:43:25;11.57;;;6.30;;
74495;SDS011;62979;55.720;37.606;2024-03-22T01:45:52;10.70;;;6.90;;
74495;SDS011;62979;55.720;37.606;2024-03-22T01:48:18;12.98;;;6.82;;
74495;SDS011;62979;55.720;37.606;2024-03-22T01:50:46;18.08;;;6.40;;
74495;SDS011;62979;55.720;37.606;2024-03-22T01:53:12;15.15;;;6.57;;
74495;SDS011;62979;55.720;37.606;2024-03-22T01:55:40;11.73;;;6.18;;
74495;SDS011;62979;55.720;37.606;2024-03-22T01:58:06;11.23;;;6.80;;
74495;SDS011;62979;55.720;37.606;2024-03-22T02:00:33;12.00;;;6.43;;
74495;SDS011;62979;55.720;37.606;2024-03-22T02:02:59;10.65;;;5.85;;
74495;SDS011;62979;55.720;37.606;2024-03-22T02:05:26;10.30;;;6.72;;
74495;SDS011;62979;55.720;37.606;2024-03-22T02:07:52;12.13;;;6.28;;
74495;SDS011;62979;55.720;37.606;2024-03-22T02:10:19;15.43;;;6.88;;
74495;SDS011;62979;55.720;37.606;2024-03-22T02:12:47;13.32;;;7.20;;
74495;SDS011;62979;55.720;37.606;2024-03-22T02:17:39;17.60;;;7.32;;
74495;SDS011;62979;55.720;37.606;2024-03-22T02:20:06;12.15;;;5.55;;
74495;SDS011;62979;55.720;37.606;2024-03-22T02:22:33;10.55;;;6.55;;
74495;SDS011;62979;55.720;37.606;2024-03-22T02:25:01;8.15;;;5.60;;
74495;SDS011;62979;55.720;37.606;2024-03-22T02:27:28;9.30;;;6.57;;
74495;SDS011;62979;55.720;37.606;2024-03-22T02:29:55;12.63;;;5.70;;
74495;SDS011;62979;55.720;37.606;2024-03-22T02:32:21;9.23;;;5.80;;
74495;SDS011;62979;55.720;37.606;2024-03-22T02:34:48;15.70;;;7.07;;
74495;SDS011;62979;55.720;37.606;2024-03-22T02:37:14;15.80;;;6.50;;
74495;SDS011;62979;55.720;37.606;2024-03-22T02:39:41;10.20;;;6.57;;
74495;SDS011;62979;55.720;37.606;2024-03-22T02:42:08;11.95;;;6.25;;
74495;SDS011;62979;55.720;37.606;2024-03-22T02:44:35;11.68;;;5.55;;
74495;SDS011;62979;55.720;37.606;2024-03-22T02:47:07;10.88;;;5.75;;
74495;SDS011;62979;55.720;37.606;2024-03-22T02:49:34;11.13;;;6.55;;
74495;SDS011;62979;55.720;37.606;2024-03-22T02:52:00;11.30;;;6.40;;
74495;SDS011;62979;55.720;37.606;2024-03-22T02:54:27;11.07;;;6.88;;
74495;SDS011;62979;55.720;37.606;2024-03-22T02:56:53;12.55;;;6.57;;
74495;SDS011;62979;55.720;37.606;2024-03-22T02:59:22;13.68;;;7.15;;
74495;SDS011;62979;55.720;37.606;2024-03-22T03:01:51;11.63;;;7.22;;
74495;SDS011;62979;55.720;37.606;2024-03-22T03:04:18;13.45;;;7.07;;
74495;SDS011;62979;55.720;37.606;2024-03-22T03:06:44;10.43;;;6.85;;
74495;SDS011;62979;55.720;37.606;2024-03-22T03:09:11;11.48;;;6.10;;
74495;SDS011;62979;55.720;37.606;2024-03-22T03:11:37;15.32;;;6.35;;
74495;SDS011;62979;55.720;37.606;2024-03-22T03:14:05;13.82;;;6.15;;
74495;SDS011;62979;55.720;37.606;2024-03-22T03:16:32;12.15;;;5.90;;
74495;SDS011;62979;55.720;37.606;2024-03-22T03:18:59;11.70;;;7.43;;
74495;SDS011;62979;55.720;37.606;2024-03-22T03:21:25;9.88;;;6.45;;
74495;SDS011;62979;55.720;37.606;2024-03-22T03:23:52;12.88;;;7.07;;
74495;SDS011;62979;55.720;37.606;2024-03-22T03:26:18;11.80;;;6.13;;
74495;SDS011;62979;55.720;37.606;2024-03-22T03:28:45;11.23;;;6.50;;
74495;SDS011;62979;55.720;37.606;2024-03-22T03:31:11;13.93;;;6.57;;
74495;SDS011;62979;55.720;37.606;2024-03-22T03:33:39;15.23;;;7.15;;
74495;SDS011;62979;55.720;37.606;2024-03-22T03:36:05;11.82;;;7.40;;
74495;SDS011;62979;55.720;37.606;2024-03-22T03:38:32;16.58;;;8.57;;
74495;SDS011;62979;55.720;37.606;2024-03-22T03:40:58;11.82;;;7.85;;
74495;SDS011;62979;55.720;37.606;2024-03-22T03:43:24;14.77;;;8.30;;
74495;SDS011;62979;55.720;37.606;2024-03-22T03:45:50;14.07;;;8.20;;
74495;SDS011;62979;55.720;37.606;2024-03-22T03:48:19;13.27;;;7.70;;
74495;SDS011;62979;55.720;37.606;2024-03-22T03:50:52;16.88;;;8.68;;
74495;SDS011;62979;55.720;37.606;2024-03-22T03:53:19;13.10;;;8.15;;
74495;SDS011;62979;55.720;37.606;2024-03-22T03:55:46;14.95;;;8.00;;
74495;SDS011;62979;55.720;37.606;2024-03-22T03:58:13;16.60;;;7.45;;
74495;SDS011;62979;55.720;37.606;2024-03-22T04:00:39;10.32;;;7.03;;
74495;SDS011;62979;55.720;37.606;2024-03-22T04:03:05;10.85;;;7.05;;
74495;SDS011;62979;55.720;37.606;2024-03-22T04:05:31;12.93;;;7.18;;
74495;SDS011;62979;55.720;37.606;2024-03-22T04:08:00;12.18;;;7.38;;
74495;SDS011;62979;55.720;37.606;2024-03-22T04:10:26;16.13;;;7.30;;
74495;SDS011;62979;55.720;37.606;2024-03-22T04:12:52;16.92;;;7.47;;
74495;SDS011;62979;55.720;37.606;2024-03-22T04:15:18;11.18;;;7.25;;
74495;SDS011;62979;55.720;37.606;2024-03-22T04:17:45;14.15;;;8.40;;
74495;SDS011;62979;55.720;37.606;2024-03-22T04:20:11;22.02;;;8.35;;
74495;SDS011;62979;55.720;37.606;2024-03-22T04:22:38;17.58;;;8.10;;
74495;SDS011;62979;55.720;37.606;2024-03-22T04:25:06;15.02;;;8.55;;
74495;SDS011;62979;55.720;37.606;2024-03-22T04:27:35;18.45;;;8.52;;
74495;SDS011;62979;55.720;37.606;2024-03-22T04:30:01;20.88;;;8.13;;
74495;SDS011;62979;55.720;37.606;2024-03-22T04:32:28;13.80;;;8.05;;
74495;SDS011;62979;55.720;37.606;2024-03-22T04:34:54;20.40;;;7.72;;
74495;SDS011;62979;55.720;37.606;2024-03-22T04:37:21;14.30;;;8.75;;
74495;SDS011;62979;55.720;37.606;2024-03-22T04:39:48;16.83;;;8.13;;
74495;SDS011;62979;55.720;37.606;2024-03-22T04:42:17;15.90;;;7.95;;
74495;SDS011;62979;55.720;37.606;2024-03-22T04:44:44;15.40;;;8.40;;
74495;SDS011;62979;55.720;37.606;2024-03-22T04:47:11;17.02;;;8.23;;
74495;SDS011;62979;55.720;37.606;2024-03-22T04:49:37;12.10;;;7.38;;
74495;SDS011;62979;55.720;37.606;2024-03-22T04:52:04;13.63;;;8.40;;
74495;SDS011;62979;55.720;37.606;2024-03-22T04:54:31;11.77;;;7.97;;
74495;SDS011;62979;55.720;37.606;2024-03-22T04:56:58;11.43;;;7.10;;
74495;SDS011;62979;55.720;37.606;2024-03-22T04:59:25;18.02;;;8.52;;
74495;SDS011;62979;55.720;37.606;2024-03-22T05:01:52;12.07;;;8.68;;
74495;SDS011;62979;55.720;37.606;2024-03-22T05:04:18;15.27;;;9.93;;
74495;SDS011;62979;55.720;37.606;2024-03-22T05:06:45;20.48;;;10.25;;
74495;SDS011;62979;55.720;37.606;2024-03-22T05:09:11;18.10;;;10.15;;
74495;SDS011;62979;55.720;37.606;2024-03-22T05:11:38;17.00;;;9.57;;
74495;SDS011;62979;55.720;37.606;2024-03-22T05:14:04;20.58;;;11.55;;
74495;SDS011;62979;55.720;37.606;2024-03-22T05:16:32;23.33;;;10.50;;
74495;SDS011;62979;55.720;37.606;2024-03-22T05:18:58;16.45;;;11.38;;
74495;SDS011;62979;55.720;37.606;2024-03-22T05:21:25;14.27;;;9.68;;
74495;SDS011;62979;55.720;37.606;2024-03-22T05:23:51;14.35;;;10.45;;
74495;SDS011;62979;55.720;37.606;2024-03-22T05:26:18;21.23;;;10.98;;
74495;SDS011;62979;55.720;37.606;2024-03-22T05:28:45;17.33;;;10.50;;
74495;SDS011;62979;55.720;37.606;2024-03-22T05:31:12;15.50;;;10.07;;
74495;SDS011;62979;55.720;37.606;2024-03-22T05:33:40;23.05;;;10.82;;
74495;SDS011;62979;55.720;37.606;2024-03-22T05:36:06;17.48;;;9.82;;
74495;SDS011;62979;55.720;37.606;2024-03-22T05:38:32;18.00;;;11.13;;
74495;SDS011;62979;55.720;37.606;2024-03-22T05:41:03;24.98;;;12.32;;
74495;SDS011;62979;55.720;37.606;2024-03-22T05:43:29;21.08;;;12.02;;
74495;SDS011;62979;55.720;37.606;2024-03-22T05:45:56;17.92;;;10.00;;
74495;SDS011;62979;55.720;37.606;2024-03-22T05:48:22;21.00;;;11.10;;
74495;SDS011;62979;55.720;37.606;2024-03-22T05:50:50;21.55;;;10.27;;
74495;SDS011;62979;55.720;37.606;2024-03-22T05:55:44;17.95;;;10.40;;
74495;SDS011;62979;55.720;37.606;2024-03-22T05:58:10;20.23;;;10.82;;
74495;SDS011;62979;55.720;37.606;2024-03-22T06:00:37;23.05;;;11.60;;
74495;SDS011;62979;55.720;37.606;2024-03-22T06:03:04;18.35;;;11.48;;
74495;SDS011;62979;55.720;37.606;2024-03-22T06:05:31;23.98;;;11.25;;
74495;SDS011;62979;55.720;37.606;2024-03-22T06:08:00;20.05;;;12.25;;
74495;SDS011;62979;55.720;37.606;2024-03-22T06:10:28;17.25;;;12.98;;
74495;SDS011;62979;55.720;37.606;2024-03-22T06:12:54;22.33;;;13.00;;
74495;SDS011;62979;55.720;37.606;2024-03-22T06:15:21;21.33;;;12.55;;
74495;SDS011;62979;55.720;37.606;2024-03-22T06:17:47;21.02;;;11.32;;
74495;SDS011;62979;55.720;37.606;2024-03-22T06:20:15;19.23;;;11.60;;
74495;SDS011;62979;55.720;37.606;2024-03-22T06:22:41;20.25;;;11.80;;
74495;SDS011;62979;55.720;37.606;2024-03-22T06:25:09;26.95;;;13.30;;
74495;SDS011;62979;55.720;37.606;2024-03-22T06:27:35;21.52;;;14.10;;
74495;SDS011;62979;55.720;37.606;2024-03-22T06:30:02;27.13;;;12.00;;
74495;SDS011;62979;55.720;37.606;2024-03-22T06:32:29;18.92;;;10.93;;
74495;SDS011;62979;55.720;37.606;2024-03-22T06:34:56;20.88;;;12.00;;
74495;SDS011;62979;55.720;37.606;2024-03-22T06:37:22;20.25;;;11.98;;
74495;SDS011;62979;55.720;37.606;2024-03-22T06:39:49;18.52;;;11.95;;
74495;SDS011;62979;55.720;37.606;2024-03-22T06:42:16;23.30;;;13.25;;
74495;SDS011;62979;55.720;37.606;2024-03-22T06:44:43;23.10;;;12.63;;
74495;SDS011;62979;55.720;37.606;2024-03-22T06:47:09;26.02;;;12.38;;
74495;SDS011;62979;55.720;37.606;2024-03-22T06:49:36;24.70;;;15.10;;
74495;SDS011;62979;55.720;37.606;2024-03-22T06:52:01;16.23;;;12.10;;
74495;SDS011;62979;55.720;37.606;2024-03-22T06:54:29;20.02;;;13.55;;
74495;SDS011;62979;55.720;37.606;2024-03-22T06:56:54;20.88;;;12.68;;
74495;SDS011;62979;55.720;37.606;2024-03-22T06:59:23;24.20;;;13.35;;
74495;SDS011;62979;55.720;37.606;2024-03-22T07:01:49;25.23;;;11.70;;
74495;SDS011;62979;55.720;37.606;2024-03-22T07:04:16;24.85;;;12.88;;
74495;SDS011;62979;55.720;37.606;2024-03-22T07:06:41;22.63;;;13.15;;
74495;SDS011;62979;55.720;37.606;2024-03-22T07:09:08;31.15;;;13.63;;
74495;SDS011;62979;55.720;37.606;2024-03-22T07:11:34;26.45;;;15.10;;
74495;SDS011;62979;55.720;37.606;2024-03-22T07:14:01;23.15;;;12.23;;
74495;SDS011;62979;55.720;37.606;2024-03-22T07:16:28;24.98;;;15.77;;
74495;SDS011;62979;55.720;37.606;2024-03-22T07:18:55;27.58;;;14.60;;
74495;SDS011;62979;55.720;37.606;2024-03-22T07:21:21;25.30;;;14.05;;
74495;SDS011;62979;55.720;37.606;2024-03-22T07:23:48;24.73;;;13.93;;
74495;SDS011;62979;55.720;37.606;2024-03-22T07:26:14;26.83;;;13.27;;
74495;SDS011;62979;55.720;37.606;2024-03-22T07:28:41;23.52;;;14.30;;
74495;SDS011;62979;55.720;37.606;2024-03-22T07:31:07;22.90;;;13.98;;
74495;SDS011;62979;55.720;37.606;2024-03-22T07:33:35;25.15;;;13.98;;
74495;SDS011;62979;55.720;37.606;2024-03-22T07:36:01;22.73;;;13.93;;
74495;SDS011;62979;55.720;37.606;2024-03-22T07:38:29;20.23;;;12.20;;
74495;SDS011;62979;55.720;37.606;2024-03-22T07:40:55;21.45;;;9.90;;
74495;SDS011;62979;55.720;37.606;2024-03-22T07:43:22;17.08;;;9.43;;
74495;SDS011;62979;55.720;37.606;2024-03-22T07:45:48;15.73;;;8.60;;
74495;SDS011;62979;55.720;37.606;2024-03-22T07:48:14;13.30;;;7.45;;
74495;SDS011;62979;55.720;37.606;2024-03-22T07:50:43;14.27;;;7.82;;
74495;SDS011;62979;55.720;37.606;2024-03-22T07:53:10;15.23;;;6.97;;
74495;SDS011;62979;55.720;37.606;2024-03-22T07:55:38;13.43;;;6.88;;
74495;SDS011;62979;55.720;37.606;2024-03-22T07:58:05;16.50;;;6.65;;
74495;SDS011;62979;55.720;37.606;2024-03-22T08:00:31;12.88;;;5.65;;
74495;SDS011;62979;55.720;37.606;2024-03-22T08:02:58;11.93;;;6.88;;
74495;SDS011;62979;55.720;37.606;2024-03-22T08:05:24;13.30;;;6.97;;
74495;SDS011;62979;55.720;37.606;2024-03-22T08:07:52;11.30;;;6.93;;
74495;SDS011;62979;55.720;37.606;2024-03-22T08:10:18;10.98;;;6.20;;
74495;SDS011;62979;55.720;37.606;2024-03-22T08:12:45;14.30;;;7.03;;
74495;SDS011;62979;55.720;37.606;2024-03-22T08:15:11;13.05;;;7.03;;
74495;SDS011;62979;55.720;37.606;2024-03-22T08:17:38;16.25;;;6.97;;
74495;SDS011;62979;55.720;37.606;2024-03-22T08:20:04;10.65;;;7.00;;
74495;SDS011;62979;55.720;37.606;2024-03-22T08:22:33;9.50;;;6.70;;
74495;SDS011;62979;55.720;37.606;2024-03-22T08:25:00;12.27;;;6.97;;
74495;SDS011;62979;55.720;37.606;2024-03-22T08:27:29;14.93;;;7.45;;
74495;SDS011;62979;55.720;37.606;2024-03-22T08:29:55;9.60;;;6.60;;
74495;SDS011;62979;55.720;37.606;2024-03-22T08:32:22;12.95;;;6.55;;
74495;SDS011;62979;55.720;37.606;2024-03-22T08:34:48;9.13;;;6.18;;
74495;SDS011;62979;55.720;37.606;2024-03-22T08:37:14;8.60;;;6.03;;
74495;SDS011;62979;55.720;37.606;2024-03-22T08:39:40;13.02;;;5.90;;
74495;SDS011;62979;55.720;37.606;2024-03-22T08:42:09;12.00;;;6.35;;
74495;SDS011;62979;55.720;37.606;2024-03-22T08:44:35;10.18;;;7.00;;
74495;SDS011;62979;55.720;37.606;2024-03-22T08:47:02;13.05;;;5.55;;
74495;SDS011;62979;55.720;37.606;2024-03-22T08:49:28;10.65;;;5.55;;
74495;SDS011;62979;55.720;37.606;2024-03-22T08:51:55;12.52;;;7.80;;
74495;SDS011;62979;55.720;37.606;2024-03-22T08:54:21;10.85;;;7.13;;
74495;SDS011;62979;55.720;37.606;2024-03-22T08:56:48;10.15;;;7.25;;
74495;SDS011;62979;55.720;37.606;2024-03-22T08:59:15;8.48;;;6.03;;
74495;SDS011;62979;55.720;37.606;2024-03-22T09:01:42;8.52;;;6.32;;
74495;SDS011;62979;55.720;37.606;2024-03-22T09:04:08;11.95;;;6.10;;
74495;SDS011;62979;55.720;37.606;2024-03-22T09:06:35;10.73;;;6.00;;
74495;SDS011;62979;55.720;37.606;2024-03-22T09:09:01;9.65;;;6.10;;
74495;SDS011;62979;55.720;37.606;2024-03-22T09:11:29;12.55;;;5.80;;
74495;SDS011;62979;55.720;37.606;2024-03-22T09:13:55;8.25;;;5.53;;
74495;SDS011;62979;55.720;37.606;2024-03-22T09:16:24;9.35;;;5.45;;
74495;SDS011;62979;55.720;37.606;2024-03-22T09:18:50;9.85;;;4.80;;
74495;SDS011;62979;55.720;37.606;2024-03-22T09:21:17;7.25;;;4.80;;
74495;SDS011;62979;55.720;37.606;2024-03-22T09:23:43;9.02;;;4.97;;
74495;SDS011;62979;55.720;37.606;2024-03-22T09:26:10;9.95;;;4.97;;
74495;SDS011;62979;55.720;37.606;2024-03-22T09:28:35;9.18;;;5.70;;
74495;SDS011;62979;55.720;37.606;2024-03-22T09:31:03;8.25;;;5.10;;
74495;SDS011;62979;55.720;37.606;2024-03-22T09:33:32;6.13;;;4.85;;
74495;SDS011;62979;55.720;37.606;2024-03-22T09:35:59;7.93;;;4.80;;
74495;SDS011;62979;55.720;37.606;2024-03-22T09:38:26;7.93;;;4.32;;
74495;SDS011;62979;55.720;37.606;2024-03-22T09:40:53;7.00;;;4.30;;
74495;SDS011;62979;55.720;37.606;2024-03-22T09:43:20;8.95;;;5.63;;
74495;SDS011;62979;55.720;37.606;2024-03-22T09:45:47;11.32;;;5.93;;
74495;SDS011;62979;55.720;37.606;2024-03-22T09:48:16;9.48;;;5.20;;
74495;SDS011;62979;55.720;37.606;2024-03-22T09:53:12;8.18;;;5.22;;
74495;SDS011;62979;55.720;37.606;2024-03-22T09:55:43;9.73;;;3.75;;
74495;SDS011;62979;55.720;37.606;2024-03-22T09:58:11;9.55;;;5.80;;
74495;SDS011;62979;55.720;37.606;2024-03-22T10:00:37;8.50;;;5.00;;
74495;SDS011;62979;55.720;37.606;2024-03-22T10:03:05;11.85;;;6.57;;
74495;SDS011;62979;55.720;37.606;2024-03-22T10:05:33;9.90;;;5.95;;
74495;SDS011;62979;55.720;37.606;2024-03-22T10:08:02;8.60;;;5.05;;
74495;SDS011;62979;55.720;37.606;2024-03-22T10:10:28;10.25;;;5.30;;
74495;SDS011;62979;55.720;37.606;2024-03-22T10:12:55;13.65;;;6.63;;
74495;SDS011;62979;55.720;37.606;2024-03-22T10:15:23;12.07;;;5.85;;
74495;SDS011;62979;55.720;37.606;2024-03-22T10:17:51;11.60;;;5.53;;
74495;SDS011;62979;55.720;37.606;2024-03-22T10:20:19;10.18;;;6.88;;
74495;SDS011;62979;55.720;37.606;2024-03-22T10:22:47;10.75;;;5.20;;
74495;SDS011;62979;55.720;37.606;2024-03-22T10:25:16;12.68;;;6.65;;
74495;SDS011;62979;55.720;37.606;2024-03-22T10:27:43;11.90;;;6.88;;
74495;SDS011;62979;55.720;37.606;2024-03-22T10:30:09;11.75;;;6.32;;
74495;SDS011;62979;55.720;37.606;2024-03-22T10:32:41;8.75;;;6.38;;
74495;SDS011;62979;55.720;37.606;2024-03-22T10:35:08;11.40;;;6.05;;
74495;SDS011;62979;55.720;37.606;2024-03-22T10:37:38;10.55;;;6.03;;
74495;SDS011;62979;55.720;37.606;2024-03-22T10:40:05;9.57;;;6.60;;
74495;SDS011;62979;55.720;37.606;2024-03-22T10:42:36;10.00;;;6.15;;
74495;SDS011;62979;55.720;37.606;2024-03-22T10:45:04;13.68;;;5.85;;
74495;SDS011;62979;55.720;37.606;2024-03-22T10:47:33;7.53;;;5.22;;
74495;SDS011;62979;55.720;37.606;2024-03-22T10:50:03;6.88;;;6.05;;
74495;SDS011;62979;55.720;37.606;2024-03-22T10:52:33;9.90;;;6.68;;
74495;SDS011;62979;55.720;37.606;2024-03-22T10:55:08;9.35;;;6.53;;
74495;SDS011;62979;55.720;37.606;2024-03-22T10:57:43;12.10;;;6.75;;
74495;SDS011;62979;55.720;37.606;2024-03-22T11:00:11;8.90;;;5.78;;
74495;SDS011;62979;55.720;37.606;2024-03-22T11:02:42;10.73;;;6.38;;
74495;SDS011;62979;55.720;37.606;2024-03-22T11:05:15;9.55;;;6.72;;
74495;SDS011;62979;55.720;37.606;2024-03-22T11:10:11;7.53;;;4.50;;
74495;SDS011;62979;55.720;37.606;2024-03-22T11:12:37;6.63;;;5.93;;
74495;SDS011;62979;55.720;37.606;2024-03-22T11:15:06;11.65;;;5.88;;
74495;SDS011;62979;55.720;37.606;2024-03-22T11:17:35;11.85;;;5.90;;
74495;SDS011;62979;55.720;37.606;2024-03-22T11:22:31;9.25;;;6.47;;
74495;SDS011;62979;55.720;37.606;2024-03-22T11:24:58;8.63;;;5.43;;
74495;SDS011;62979;55.720;37.606;2024-03-22T11:27:24;8.90;;;5.85;;
74495;SDS011;62979;55.720;37.606;2024-03-22T11:29:51;9.48;;;6.03;;
74495;SDS011;62979;55.720;37.606;2024-03-22T11:32:21;7.97;;;5.07;;
74495;SDS011;62979;55.720;37.606;2024-03-22T11:34:49;8.05;;;6.07;;
74495;SDS011;62979;55.720;37.606;2024-03-22T11:37:15;7.25;;;5.95;;
74495;SDS011;62979;55.720;37.606;2024-03-22T11:39:42;10.52;;;6.47;;
74495;SDS011;62979;55.720;37.606;2024-03-22T11:42:08;7.30;;;5.50;;
74495;SDS011;62979;55.720;37.606;2024-03-22T11:44:37;9.95;;;5.63;;
74495;SDS011;62979;55.720;37.606;2024-03-22T11:47:05;9.80;;;6.05;;
74495;SDS011;62979;55.720;37.606;2024-03-22T11:49:34;10.05;;;6.65;;
74495;SDS011;62979;55.720;37.606;2024-03-22T11:52:00;10.13;;;7.25;;
74495;SDS011;62979;55.720;37.606;2024-03-22T11:54:27;12.13;;;5.88;;
74495;SDS011;62979;55.720;37.606;2024-03-22T11:56:55;7.85;;;6.13;;
74495;SDS011;62979;55.720;37.606;2024-03-22T11:59:22;9.38;;;6.78;;
74495;SDS011;62979;55.720;37.606;2024-03-22T12:01:48;9.13;;;6.07;;
74495;SDS011;62979;55.720;37.606;2024-03-22T12:04:15;9.93;;;6.25;;
74495;SDS011;62979;55.720;37.606;2024-03-22T12:06:43;8.40;;;6.68;;
74495;SDS011;62979;55.720;37.606;2024-03-22T12:09:11;10.10;;;7.10;;
74495;SDS011;62979;55.720;37.606;2024-03-22T12:11:37;8.60;;;6.82;;
74495;SDS011;62979;55.720;37.606;2024-03-22T12:14:05;6.20;;;5.60;;
74495;SDS011;62979;55.720;37.606;2024-03-22T12:16:31;8.20;;;6.47;;
74495;SDS011;62979;55.720;37.606;2024-03-22T12:18:58;9.90;;;5.70;;
74495;SDS011;62979;55.720;37.606;2024-03-22T12:21:24;8.75;;;6.30;;
74495;SDS011;62979;55.720;37.606;2024-03-22T12:23:52;8.50;;;6.65;;
74495;SDS011;62979;55.720;37.606;2024-03-22T12:28:45;8.93;;;6.18;;
74495;SDS011;62979;55.720;37.606;2024-03-22T12:31:11;6.63;;;5.30;;
74495;SDS011;62979;55.720;37.606;2024-03-22T12:36:04;8.13;;;6.65;;
74495;SDS011;62979;55.720;37.606;2024-03-22T12:40:58;7.65;;;5.03;;
74495;SDS011;62979;55.720;37.606;2024-03-22T12:43:25;8.73;;;5.60;;
74495;SDS011;62979;55.720;37.606;2024-03-22T12:45:51;5.63;;;5.07;;
74495;SDS011;62979;55.720;37.606;2024-03-22T12:50:44;9.43;;;5.05;;
74495;SDS011;62979;55.720;37.606;2024-03-22T12:53:11;6.65;;;6.03;;
74495;SDS011;62979;55.720;37.606;2024-03-22T12:55:37;9.13;;;5.55;;
74495;SDS011;62979;55.720;37.606;2024-03-22T12:58:05;7.68;;;5.28;;
74495;SDS011;62979;55.720;37.606;2024-03-22T13:00:31;6.18;;;5.13;;
74495;SDS011;62979;55.720;37.606;2024-03-22T13:05:25;9.18;;;5.20;;
74495;SDS011;62979;55.720;37.606;2024-03-22T13:07:52;10.90;;;5.95;;
74495;SDS011;62979;55.720;37.606;2024-03-22T13:10:18;6.95;;;5.40;;
74495;SDS011;62979;55.720;37.606;2024-03-22T13:12:45;6.13;;;4.63;;
74495;SDS011;62979;55.720;37.606;2024-03-22T13:15:14;5.88;;;4.53;;
74495;SDS011;62979;55.720;37.606;2024-03-22T13:17:41;11.45;;;5.72;;
74495;SDS011;62979;55.720;37.606;2024-03-22T13:20:07;10.00;;;6.32;;
74495;SDS011;62979;55.720;37.606;2024-03-22T13:22:35;10.93;;;5.43;;
74495;SDS011;62979;55.720;37.606;2024-03-22T13:25:02;8.27;;;5.20;;
74495;SDS011;62979;55.720;37.606;2024-03-22T13:27:32;8.18;;;5.82;;
74495;SDS011;62979;55.720;37.606;2024-03-22T13:29:59;5.90;;;5.00;;
74495;SDS011;62979;55.720;37.606;2024-03-22T13:32:27;5.90;;;4.65;;
74495;SDS011;62979;55.720;37.606;2024-03-22T13:37:20;5.97;;;4.05;;
74495;SDS011;62979;55.720;37.606;2024-03-22T13:39:47;5.85;;;4.28;;
74495;SDS011;62979;55.720;37.606;2024-03-22T13:42:15;8.90;;;4.15;;
74495;SDS011;62979;55.720;37.606;2024-03-22T13:44:41;6.38;;;5.05;;
74495;SDS011;62979;55.720;37.606;2024-03-22T13:47:08;6.25;;;4.07;;
74495;SDS011;62979;55.720;37.606;2024-03-22T13:49:36;8.25;;;4.32;;
74495;SDS011;62979;55.720;37.606;2024-03-22T13:52:06;8.30;;;3.53;;
74495;SDS011;62979;55.720;37.606;2024-03-22T13:54:32;8.90;;;4.43;;
74495;SDS011;62979;55.720;37.606;2024-03-22T13:56:59;5.38;;;3.58;;
74495;SDS011;62979;55.720;37.606;2024-03-22T13:59:25;7.05;;;4.32;;
74495;SDS011;62979;55.720;37.606;2024-03-22T14:01:52;7.88;;;4.60;;
74495;SDS011;62979;55.720;37.606;2024-03-22T14:04:18;6.95;;;4.97;;
74495;SDS011;62979;55.720;37.606;2024-03-22T14:06:46;5.63;;;4.00;;
74495;SDS011;62979;55.720;37.606;2024-03-22T14:09:12;8.00;;;4.20;;
74495;SDS011;62979;55.720;37.606;2024-03-22T14:11:40;8.88;;;4.65;;
74495;SDS011;62979;55.720;37.606;2024-03-22T14:14:08;7.43;;;4.97;;
74495;SDS011;62979;55.720;37.606;2024-03-22T14:16:36;8.75;;;3.90;;
74495;SDS011;62979;55.720;37.606;2024-03-22T14:19:03;6.72;;;4.35;;
74495;SDS011;62979;55.720;37.606;2024-03-22T14:21:30;5.45;;;3.53;;
74495;SDS011;62979;55.720;37.606;2024-03-22T14:23:57;5.38;;;3.55;;
74495;SDS011;62979;55.720;37.606;2024-03-22T14:26:24;8.60;;;4.03;;
74495;SDS011;62979;55.720;37.606;2024-03-22T14:28:50;7.75;;;4.13;;
74495;SDS011;62979;55.720;37.606;2024-03-22T14:31:18;6.85;;;4.07;;
74495;SDS011;62979;55.720;37.606;2024-03-22T14:33:44;6.45;;;3.75;;
74495;SDS011;62979;55.720;37.606;2024-03-22T14:36:12;4.80;;;3.80;;
74495;SDS011;62979;55.720;37.606;2024-03-22T14:38:38;9.55;;;4.30;;
74495;SDS011;62979;55.720;37.606;2024-03-22T14:41:07;8.30;;;4.00;;
74495;SDS011;62979;55.720;37.606;2024-03-22T14:43:33;9.00;;;4.18;;
74495;SDS011;62979;55.720;37.606;2024-03-22T14:46:00;7.57;;;3.72;;
74495;SDS011;62979;55.720;37.606;2024-03-22T14:48:28;7.07;;;4.30;;
74495;SDS011;62979;55.720;37.606;2024-03-22T14:50:55;8.02;;;4.10;;
74495;SDS011;62979;55.720;37.606;2024-03-22T14:53:21;6.15;;;4.05;;